KFWN

Sussex Airport

Sussex, New Jersey, USA
METAR KFWN 230053Z AUTO 25003KT 10SM CLR 03/02 A3016 RMK AO2 SLP216 T00280022
Observed Flight Rules
Oct-23 @ 00:53 UTC (9 minutes ago) Visual Flight Rules
Wind Visibility Clouds
250° at 3 knots 10 miles
  • Clear skies
Temperatures Readings
Current 3°C / 37°F
Dewpoint 2°C / 36°F
Humidity 93%
Altimeter 30.16" Hg
Pressure 1021.6 hPa
Elevation 133
METAR KFWN 230053Z AUTO 25003KT 10SM CLR 03/02 A3016 RMK AO2 SLP216 T00280022
Observed Flight Rules
Oct-23 @ 00:53 UTC
(9 minutes ago)
VFR
Wind Visibility
250° at 3 knots 10 miles
Clouds
  • Clear skies
Temperature Dewpoint
3°C / 37°F 2°C / 36°F
Humidity Altimeter Pressure
93% 30.16" Hg 1021.6 hPa